Wan Hai 501 — S6AS7 — position and weather

sailwx.info

Track history (hours):
 
Tides and Currents Weather Stations Pressure Air Temp Water Temp Dewpoint Dewpoint Depression Visibility Wind Speed Wind Dir Waves Ship Positions

Wan Hai 501

Last reported at 2016-Sep-12 01:16 UTC. Time now 2016-Sep-25 15:43 UTC.
Position N 01°59' E 102°14'.
Warning: this ship's position is 13 days out of date.

Length 269 m; draft 11.5 m.

Type: Cargo ship. MMSI: 563382000.

Date/timePositionNaut miles runAvg speedWind from/ knotsBaromVisibWave heightAir tempDewpointWater temp
2016-Sep-12 01:16N 01°59' E 102°14'2514.6
2016-Sep-11 23:33N 01°47' E 102°36'1414.4
2016-Sep-11 22:33N 01°40' E 102°49'5814.3
2016-Sep-11 18:32N 01°11' E 103°38'1212.1
2016-Sep-11 17:33N 01°11' E 103°50'4 4.3
2016-Sep-11 16:33N 01°16' E 103°51'0 0.1
2016-Sep-11 15:28N 01°16' E 103°51'0 0.0
2016-Sep-11 14:25N 01°16' E 103°51'0 0.0
2016-Sep-11 13:31N 01°16' E 103°51'0 0.0
2016-Sep-11 12:31N 01°16' E 103°51'0 0.0
2016-Sep-11 11:28N 01°16' E 103°51'0 0.0
2016-Sep-11 10:28N 01°16' E 103°51'0 0.0
2016-Sep-11 08:31N 01°16' E 103°51'0 0.0
2016-Sep-11 07:25N 01°16' E 103°51'0 0.0
2016-Sep-11 03:31N 01°16' E 103°51'0 0.0
2016-Sep-11 02:04N 01°16' E 103°51'0 0.0
2016-Sep-11 01:31N 01°15' E 103°51'0 0.0
2016-Sep-11 00:28N 01°16' E 103°51'0 0.0
2016-Sep-10 23:28N 01°16' E 103°51'0 0.0
2016-Sep-10 22:22N 01°16' E 103°51'3 3.7
2016-Sep-10 21:33N 01°14' E 103°53'1111.4
2016-Sep-10 20:33N 01°16' E 104°04'  
2016-Sep-07 14:20N 22°17' E 114°06'3 2.5
2016-Sep-07 13:11N 22°20' E 114°08'0 0.0
2016-Sep-07 12:17N 22°20' E 114°08'0 0.0
2016-Sep-07 11:17N 22°20' E 114°08'0 0.0
2016-Sep-07 09:17N 22°20' E 114°08'0 0.0
2016-Sep-07 08:23N 22°20' E 114°08'0 0.0
2016-Sep-07 07:29N 22°20' E 114°08'0 0.0
2016-Sep-07 04:23N 22°20' E 114°08'0 0.0
2016-Sep-07 03:29N 22°20' E 114°08'0 0.0
2016-Sep-07 02:29N 22°20' E 114°08'1 1.0
2016-Sep-07 01:33N 22°19' E 114°07'15 7.7
2016-Sep-06 23:33N 22°09' E 114°19'3 2.7
2016-Sep-06 22:30N 22°10' E 114°22'0 0.2
2016-Sep-06 21:30N 22°10' E 114°22'5 4.8
2016-Sep-06 20:30N 22°08' E 114°27'14015.3
2016-Sep-06 11:21N 22°56' E 116°50'810.2
2016-Sep-06 10:34N 23°01' E 116°57'0 0.3
2016-Sep-06 09:22N 23°01' E 116°57'0 0.1
2016-Sep-06 08:28N 23°01' E 116°57'1 1.1
2016-Sep-06 07:33N 23°01' E 116°58'1313.3
2016-Sep-06 06:33N 23°07' E 117°11'7314.4
2016-Sep-06 01:28N 23°49' E 118°17'4414.9
2016-Sep-05 22:32N 24°15' E 118°55'  
2016-Sep-02 15:21N 34°44' E 139°15'2714.9
2016-Sep-02 13:33N 35°02' E 139°39'1313.3
2016-Sep-02 12:33N 35°14' E 139°46'1211.8
2016-Sep-02 11:33N 35°25' E 139°44'1010.0
2016-Sep-02 10:33N 35°35' E 139°48'2 1.8
2016-Sep-02 09:31N 35°36' E 139°46'0 0.0
2016-Sep-02 08:31N 35°36' E 139°46'0 0.0
2016-Sep-02 07:31N 35°36' E 139°46'0 0.0
2016-Sep-02 06:31N 35°36' E 139°46'0 0.0
2016-Sep-02 05:31N 35°36' E 139°46'0 0.0
2016-Sep-02 04:31N 35°36' E 139°46'0 0.0
2016-Sep-02 03:31N 35°36' E 139°46'0 0.0
2016-Sep-02 02:31N 35°36' E 139°46'0 0.0
2016-Sep-02 01:28N 35°36' E 139°46'  
Track history (hours):
 
Tides and Currents Weather Stations Pressure Air Temp Water Temp Dewpoint Dewpoint Depression Visibility Wind Speed Wind Dir Waves Ship Positions

Wan Hai 501

Last reported at 2016-Sep-12 01:16 UTC. Time now 2016-Sep-25 15:43 UTC.
Position N 01°59' E 102°14'.
Warning: this ship's position is 13 days out of date.

Length 269 m; draft 11.5 m.

Type: Cargo ship. MMSI: 563382000.

Date/timePositionNaut miles runAvg speedWind from/ knotsBaromVisibWave heightAir tempDewpointWater temp
2016-Sep-12 01:16N 01°59' E 102°14'2514.6
2016-Sep-11 23:33N 01°47' E 102°36'1414.4
2016-Sep-11 22:33N 01°40' E 102°49'5814.3
2016-Sep-11 18:32N 01°11' E 103°38'1212.1
2016-Sep-11 17:33N 01°11' E 103°50'4 4.3
2016-Sep-11 16:33N 01°16' E 103°51'0 0.1
2016-Sep-11 15:28N 01°16' E 103°51'0 0.0
2016-Sep-11 14:25N 01°16' E 103°51'0 0.0
2016-Sep-11 13:31N 01°16' E 103°51'0 0.0
2016-Sep-11 12:31N 01°16' E 103°51'0 0.0
2016-Sep-11 11:28N 01°16' E 103°51'0 0.0
2016-Sep-11 10:28N 01°16' E 103°51'0 0.0
2016-Sep-11 08:31N 01°16' E 103°51'0 0.0
2016-Sep-11 07:25N 01°16' E 103°51'0 0.0
2016-Sep-11 03:31N 01°16' E 103°51'0 0.0
2016-Sep-11 02:04N 01°16' E 103°51'0 0.0
2016-Sep-11 01:31N 01°15' E 103°51'0 0.0
2016-Sep-11 00:28N 01°16' E 103°51'0 0.0
2016-Sep-10 23:28N 01°16' E 103°51'0 0.0
2016-Sep-10 22:22N 01°16' E 103°51'3 3.7
2016-Sep-10 21:33N 01°14' E 103°53'1111.4
2016-Sep-10 20:33N 01°16' E 104°04'  
2016-Sep-07 14:20N 22°17' E 114°06'3 2.5
2016-Sep-07 13:11N 22°20' E 114°08'0 0.0
2016-Sep-07 12:17N 22°20' E 114°08'0 0.0
2016-Sep-07 11:17N 22°20' E 114°08'0 0.0
2016-Sep-07 09:17N 22°20' E 114°08'0 0.0
2016-Sep-07 08:23N 22°20' E 114°08'0 0.0
2016-Sep-07 07:29N 22°20' E 114°08'0 0.0
2016-Sep-07 04:23N 22°20' E 114°08'0 0.0
2016-Sep-07 03:29N 22°20' E 114°08'0 0.0
2016-Sep-07 02:29N 22°20' E 114°08'1 1.0
2016-Sep-07 01:33N 22°19' E 114°07'15 7.7
2016-Sep-06 23:33N 22°09' E 114°19'3 2.7
2016-Sep-06 22:30N 22°10' E 114°22'0 0.2
2016-Sep-06 21:30N 22°10' E 114°22'5 4.8
2016-Sep-06 20:30N 22°08' E 114°27'14015.3
2016-Sep-06 11:21N 22°56' E 116°50'810.2
2016-Sep-06 10:34N 23°01' E 116°57'0 0.3
2016-Sep-06 09:22N 23°01' E 116°57'0 0.1
2016-Sep-06 08:28N 23°01' E 116°57'1 1.1
2016-Sep-06 07:33N 23°01' E 116°58'1313.3
2016-Sep-06 06:33N 23°07' E 117°11'7314.4
2016-Sep-06 01:28N 23°49' E 118°17'4414.9
2016-Sep-05 22:32N 24°15' E 118°55'  
2016-Sep-02 15:21N 34°44' E 139°15'2714.9
2016-Sep-02 13:33N 35°02' E 139°39'1313.3
2016-Sep-02 12:33N 35°14' E 139°46'1211.8
2016-Sep-02 11:33N 35°25' E 139°44'1010.0
2016-Sep-02 10:33N 35°35' E 139°48'2 1.8
2016-Sep-02 09:31N 35°36' E 139°46'0 0.0
2016-Sep-02 08:31N 35°36' E 139°46'0 0.0
2016-Sep-02 07:31N 35°36' E 139°46'0 0.0
2016-Sep-02 06:31N 35°36' E 139°46'0 0.0
2016-Sep-02 05:31N 35°36' E 139°46'0 0.0
2016-Sep-02 04:31N 35°36' E 139°46'0 0.0
2016-Sep-02 03:31N 35°36' E 139°46'0 0.0
2016-Sep-02 02:31N 35°36' E 139°46'0 0.0
2016-Sep-02 01:28N 35°36' E 139°46'  

Dump ship's entire track history